Time;durP1;ratioP1;P1;durP2;ratioP2;P2;SDS_P1;SDS_P2;PMS_P1;PMS_P2;Temp;Humidity;BMP_temperature;BMP_pressure;BME280_temperature;BME280_humidity;BME280_pressure;Samples;Min_cycle;Max_cycle;Signal;HPM_P1;HPM_P2
2022/01/08 00:01:47;;;;;;;1.30;1.07;;;;;;;1.89;100.00;97747.59;5106454;28;20225;-81
2022/01/08 00:04:14;;;;;;;1.50;1.20;;;;;;;1.94;100.00;97733.44;5108749;28;20701;-81
2022/01/08 00:06:40;;;;;;;1.17;1.07;;;;;;;1.93;99.90;97726.53;5109036;28;20222;-82
2022/01/08 00:09:07;;;;;;;1.67;1.43;;;;;;;1.86;100.00;97717.28;5107360;28;20663;-82
2022/01/08 00:11:35;;;;;;;1.57;1.20;;;;;;;1.87;100.00;97713.75;5097279;28;20210;-82
2022/01/08 00:14:04;;;;;;;2.10;1.20;;;;;;;1.85;100.00;97712.97;5095818;28;20215;-81
2022/01/08 00:16:33;;;;;;;2.60;1.60;;;;;;;1.86;100.00;97708.59;5093720;28;20238;-81
2022/01/08 00:18:59;;;;;;;1.77;1.30;;;;;;;1.87;100.00;97698.13;5096821;28;20218;-82
2022/01/08 00:21:26;;;;;;;2.30;1.23;;;;;;;1.92;100.00;97696.19;5099139;28;20217;-81
2022/01/08 00:23:53;;;;;;;1.97;1.40;;;;;;;1.99;100.00;97692.41;5095823;28;20211;-82
2022/01/08 00:26:19;;;;;;;1.80;1.30;;;;;;;2.05;100.00;97686.94;5095471;28;20218;-82
2022/01/08 00:28:47;;;;;;;1.20;1.10;;;;;;;2.14;100.00;97677.88;5096364;28;20675;-82
2022/01/08 00:31:14;;;;;;;1.30;1.20;;;;;;;2.22;99.71;97676.63;5097224;28;20241;-81
2022/01/08 00:33:41;;;;;;;2.03;1.47;;;;;;;2.31;99.68;97678.81;5095308;28;20710;-82
2022/01/08 00:36:08;;;;;;;1.60;1.37;;;;;;;2.34;99.18;97673.47;5095081;28;20734;-82
2022/01/08 00:38:35;;;;;;;2.63;1.50;;;;;;;2.39;99.03;97655.84;5095771;28;20676;-82
2022/01/08 00:41:01;;;;;;;2.50;1.73;;;;;;;2.41;98.75;97659.25;5097390;28;20212;-82
2022/01/08 00:43:28;;;;;;;1.67;1.53;;;;;;;2.42;98.33;97662.69;5094163;28;20206;-82
2022/01/08 00:45:56;;;;;;;2.50;1.80;;;;;;;2.42;98.83;97652.28;5099189;28;20636;-82
2022/01/08 00:48:22;;;;;;;3.60;1.70;;;;;;;2.45;98.28;97655.59;5099340;28;20217;-82
2022/01/08 00:50:50;;;;;;;2.00;1.73;;;;;;;2.45;98.55;97652.97;5101593;28;20207;-81
2022/01/08 00:53:16;;;;;;;1.97;1.77;;;;;;;2.46;98.71;97641.63;5099092;28;20695;-81
2022/01/08 00:55:43;;;;;;;3.07;2.10;;;;;;;2.53;97.81;97634.38;5099086;28;20284;-81
2022/01/08 00:58:09;;;;;;;3.17;2.20;;;;;;;2.54;97.87;97649.13;5099171;28;20214;-81
2022/01/08 01:00:36;;;;;;;2.20;2.00;;;;;;;2.56;97.49;97631.66;5099120;28;20211;-82
2022/01/08 01:03:04;;;;;;;2.77;2.30;;;;;;;2.55;97.65;97638.63;5098050;28;20211;-81
2022/01/08 01:05:30;;;;;;;2.77;2.10;;;;;;;2.56;97.80;97626.44;5098144;28;20207;-81
2022/01/08 01:07:57;;;;;;;2.13;1.93;;;;;;;2.62;96.61;97619.16;5097678;28;20215;-81
2022/01/08 01:10:23;;;;;;;2.27;2.07;;;;;;;2.56;97.03;97622.03;5098980;28;20560;-81
2022/01/08 01:12:50;;;;;;;2.70;2.00;;;;;;;2.51;96.64;97608.38;5099052;28;20214;-82
2022/01/08 01:15:17;;;;;;;2.83;2.23;;;;;;;2.49;97.38;97610.22;5098560;28;20688;-82
2022/01/08 01:17:44;;;;;;;3.00;2.43;;;;;;;2.53;96.48;97606.56;5098501;28;20211;-82
2022/01/08 01:20:15;;;;;;;3.67;2.00;;;;;;;2.53;96.76;97601.34;5101386;28;20210;-81
2022/01/08 01:22:50;;;;;;;3.30;2.10;;;;;;;2.53;96.69;97596.13;5098502;28;20213;-82
2022/01/08 01:25:22;;;;;;;2.93;2.13;;;;;;;2.59;96.57;97589.75;5098370;28;20210;-82
2022/01/08 01:28:04;;;;;;;2.30;2.10;;;;;;;2.60;96.90;97583.63;5099345;28;20233;-81
2022/01/08 01:41:38;;;;;;;2.90;2.13;;;;;;;2.62;96.81;97561.78;5097935;28;20220;-81
2022/01/08 01:47:03;;;;;;;2.93;2.20;;;;;;;2.55;98.00;97534.28;5097970;28;20213;-82
2022/01/08 01:49:31;;;;;;;2.17;1.90;;;;;;;2.54;98.68;97523.91;5099715;28;20219;-81
2022/01/08 01:52:00;;;;;;;2.90;2.20;;;;;;;2.55;97.90;97520.38;5098658;28;20224;-82
2022/01/08 01:54:27;;;;;;;2.27;1.90;;;;;;;2.49;99.13;97516.31;5097949;28;20218;-81
2022/01/08 01:56:55;;;;;;;2.27;1.97;;;;;;;2.55;98.83;97494.31;5097009;28;20684;-81
2022/01/08 01:59:21;;;;;;;4.20;2.30;;;;;;;2.65;97.83;97500.78;5099683;28;20211;-82
2022/01/08 02:01:48;;;;;;;2.87;1.80;;;;;;;2.61;98.83;97480.97;5096487;28;20218;-81
2022/01/08 02:04:14;;;;;;;4.00;2.03;;;;;;;2.56;98.90;97475.97;5097771;28;20586;-81
2022/01/08 02:06:41;;;;;;;2.03;1.80;;;;;;;2.46;99.23;97466.06;5097607;28;20210;-81
2022/01/08 02:09:09;;;;;;;2.90;2.00;;;;;;;2.52;98.17;97453.56;5098285;28;20216;-81
2022/01/08 02:11:55;;;;;;;4.10;2.07;;;;;;;2.37;100.00;97459.53;5108051;28;21199;-81
2022/01/08 02:14:21;;;;;;;2.23;2.03;;;;;;;2.39;100.00;97452.47;5110772;28;20210;-82
2022/01/08 02:16:48;;;;;;;2.40;1.97;;;;;;;2.36;100.00;97452.63;5110688;28;20234;-81
2022/01/08 02:19:14;;;;;;;2.17;1.70;;;;;;;2.39;100.00;97455.06;5106648;28;20210;-81
2022/01/08 02:21:48;;;;;;;2.10;1.90;;;;;;;2.44;100.00;97454.88;5109581;28;20218;-81
2022/01/08 02:24:14;;;;;;;2.63;1.57;;;;;;;2.50;100.00;97442.38;5110506;28;20205;-81
2022/01/08 02:26:41;;;;;;;2.00;1.50;;;;;;;2.55;100.00;97435.19;5110267;28;20218;-81
2022/01/08 02:29:11;;;;;;;2.20;1.73;;;;;;;2.65;100.00;97435.56;5104890;28;20217;-82
2022/01/08 02:31:37;;;;;;;4.20;1.90;;;;;;;2.72;98.85;97423.91;5097244;28;20246;-81
2022/01/08 02:34:05;;;;;;;2.50;2.00;;;;;;;2.75;99.25;97429.00;5097325;28;20218;-82
2022/01/08 02:36:31;;;;;;;3.80;1.90;;;;;;;2.79;99.31;97423.53;5097373;28;20291;-82
2022/01/08 02:38:59;;;;;;;3.10;1.77;;;;;;;2.86;98.33;97417.09;5099591;28;20213;-81
2022/01/08 02:41:27;;;;;;;2.53;1.63;;;;;;;2.85;98.46;97406.72;5097251;28;20211;-81
2022/01/08 02:43:54;;;;;;;2.77;2.23;;;;;;;2.83;98.88;97406.81;5098857;28;20210;-81
2022/01/08 02:46:21;;;;;;;1.70;1.60;;;;;;;2.85;98.76;97393.69;5096782;28;20222;-82
2022/01/08 02:48:48;;;;;;;2.07;1.70;;;;;;;2.78;99.29;97398.38;5099408;28;20207;-81
2022/01/08 02:51:14;;;;;;;2.03;1.70;;;;;;;2.79;99.53;97391.38;5098612;28;20208;-81
2022/01/08 02:53:41;;;;;;;2.67;1.80;;;;;;;2.73;100.00;97383.84;5094221;28;20223;-81
2022/01/08 02:56:09;;;;;;;2.00;1.73;;;;;;;2.74;100.00;97388.16;5095482;28;20242;-82
2022/01/08 02:58:36;;;;;;;2.83;1.73;;;;;;;2.72;100.00;97380.41;5096719;28;20211;-81
2022/01/08 03:01:02;;;;;;;2.00;1.60;;;;;;;2.74;100.00;97375.97;5095911;28;20272;-82
2022/01/08 03:03:29;;;;;;;4.17;1.90;;;;;;;2.77;100.00;97370.59;5095636;28;20588;-82
2022/01/08 03:05:55;;;;;;;3.50;1.80;;;;;;;2.75;100.00;97364.59;5095288;28;20225;-82
2022/01/08 03:08:22;;;;;;;3.13;1.90;;;;;;;2.78;100.00;97361.84;5095663;28;20222;-82
2022/01/08 03:10:48;;;;;;;2.07;1.77;;;;;;;2.81;100.00;97355.63;5097481;28;20578;-82
2022/01/08 03:13:16;;;;;;;1.83;1.37;;;;;;;2.84;100.00;97345.88;5096198;28;20214;-82
2022/01/08 03:15:43;;;;;;;2.70;1.57;;;;;;;2.88;100.00;97352.63;5096543;28;20236;-82
2022/01/08 03:18:09;;;;;;;2.47;1.83;;;;;;;2.86;100.00;97354.47;5099055;28;20217;-82
2022/01/08 03:20:45;;;;;;;2.23;1.50;;;;;;;2.92;99.84;97353.28;5094865;28;20602;-81
2022/01/08 03:23:15;;;;;;;4.13;1.50;;;;;;;2.98;100.00;97351.22;5096278;28;20580;-82
2022/01/08 03:25:42;;;;;;;1.83;1.10;;;;;;;2.98;100.00;97353.84;5096317;28;20221;-81
2022/01/08 03:28:09;;;;;;;3.80;1.30;;;;;;;2.98;100.00;97332.97;5098324;28;20214;-81
2022/01/08 03:30:36;;;;;;;2.00;1.30;;;;;;;3.02;100.00;97342.31;5095921;28;20236;-81
2022/01/08 03:33:03;;;;;;;1.57;1.30;;;;;;;3.15;100.00;97345.13;5096515;28;20263;-81
2022/01/08 03:35:29;;;;;;;2.80;1.40;;;;;;;3.11;100.00;97333.19;5096037;28;20214;-81
2022/01/08 03:37:56;;;;;;;2.60;1.60;;;;;;;3.15;100.00;97324.25;5096186;28;20212;-81
2022/01/08 03:40:23;;;;;;;2.00;1.27;;;;;;;3.12;100.00;97321.81;5095264;28;20207;-81
2022/01/08 03:42:49;;;;;;;2.13;1.47;;;;;;;3.02;100.00;97313.63;5094614;28;20225;-82
2022/01/08 03:45:16;;;;;;;3.87;1.70;;;;;;;3.08;100.00;97323.75;5094990;28;20219;-81
2022/01/08 03:48:17;;;;;;;1.60;1.30;;;;;;;3.09;100.00;97317.59;5093635;28;20215;-81
2022/01/08 03:50:44;;;;;;;1.97;1.77;;;;;;;3.03;100.00;97320.53;5096053;28;20217;-81
2022/01/08 03:53:11;;;;;;;1.90;1.50;;;;;;;2.97;100.00;97313.00;5095880;28;20227;-81
2022/01/08 03:55:37;;;;;;;2.57;1.90;;;;;;;3.01;100.00;97317.13;5098678;28;20228;-82
2022/01/08 03:58:04;;;;;;;2.47;1.63;;;;;;;3.03;100.00;97306.63;5095710;28;20222;-81
2022/01/08 04:00:31;;;;;;;1.93;1.43;;;;;;;2.99;100.00;97313.75;5095791;28;20220;-81
2022/01/08 04:02:59;;;;;;;2.63;2.03;;;;;;;3.01;100.00;97316.31;5095863;28;20214;-82
2022/01/08 04:05:26;;;;;;;2.10;1.90;;;;;;;2.85;100.00;97310.19;5098590;28;20345;-81
2022/01/08 04:07:52;;;;;;;2.30;1.90;;;;;;;2.85;100.00;97305.81;5107778;28;20214;-81
2022/01/08 04:10:19;;;;;;;2.43;1.67;;;;;;;2.92;100.00;97301.97;5104072;28;20222;-81
2022/01/08 04:12:49;;;;;;;1.97;1.70;;;;;;;2.86;100.00;97306.63;5093760;28;20212;-82
2022/01/08 04:15:37;;;;;;;2.00;1.77;;;;;;;2.80;100.00;97302.59;5098611;28;20213;-82
2022/01/08 04:18:06;;;;;;;2.23;2.03;;;;;;;2.75;100.00;97303.78;5096201;28;20324;-81
2022/01/08 04:20:35;;;;;;;2.33;1.90;;;;;;;2.75;100.00;97307.19;5099468;28;20704;-81
2022/01/08 04:23:02;;;;;;;3.00;2.03;;;;;;;2.76;100.00;97308.06;5102638;28;20345;-82
2022/01/08 04:25:30;;;;;;;2.40;2.00;;;;;;;2.74;100.00;97304.66;5099694;28;20215;-81
2022/01/08 04:27:56;;;;;;;2.80;1.70;;;;;;;2.73;100.00;97309.06;5099742;28;20214;-81
2022/01/08 04:30:23;;;;;;;2.20;2.00;;;;;;;2.73;100.00;97306.44;5099118;28;20239;-82
2022/01/08 04:32:49;;;;;;;3.17;1.80;;;;;;;2.74;100.00;97312.50;5101617;28;20215;-82
2022/01/08 04:35:17;;;;;;;2.17;1.70;;;;;;;2.75;100.00;97316.81;5099525;28;20239;-81
2022/01/08 04:37:44;;;;;;;1.57;1.47;;;;;;;2.76;100.00;97323.72;5099393;28;20248;-82
2022/01/08 04:40:11;;;;;;;3.27;1.87;;;;;;;2.81;100.00;97332.97;5097389;28;20668;-82
2022/01/08 04:42:37;;;;;;;2.50;1.87;;;;;;;2.84;100.00;97331.97;5101731;28;20219;-82
2022/01/08 04:45:05;;;;;;;1.40;1.30;;;;;;;2.89;100.00;97343.03;5099537;28;20226;-82
2022/01/08 04:47:32;;;;;;;1.73;1.63;;;;;;;2.91;100.00;97354.22;5098287;28;20227;-82
2022/01/08 04:49:58;;;;;;;1.93;1.53;;;;;;;2.92;100.00;97348.94;5099262;28;20585;-82
2022/01/08 04:52:26;;;;;;;1.53;1.43;;;;;;;2.95;100.00;97348.75;5101140;28;20212;-82
2022/01/08 04:54:53;;;;;;;1.60;1.50;;;;;;;2.99;100.00;97358.13;5099500;28;20215;-81
2022/01/08 04:57:26;;;;;;;2.00;1.40;;;;;;;2.86;100.00;97357.06;5099066;28;20307;-82
2022/01/08 04:59:52;;;;;;;1.40;1.20;;;;;;;2.87;100.00;97357.94;5099262;28;20212;-81
2022/01/08 05:02:19;;;;;;;1.40;1.30;;;;;;;2.82;100.00;97365.97;5101478;28;20575;-82
2022/01/08 05:04:45;;;;;;;1.67;1.17;;;;;;;2.85;100.00;97378.88;5097250;28;20206;-82
2022/01/08 05:07:12;;;;;;;1.50;1.20;;;;;;;2.69;100.00;97375.34;5099126;28;20218;-76
2022/01/08 05:09:40;;;;;;;3.17;1.50;;;;;;;2.57;100.00;97383.78;5105291;28;20218;-74
2022/01/08 05:12:07;;;;;;;1.40;1.30;;;;;;;2.43;100.00;97395.78;5109844;28;20210;-73
2022/01/08 05:14:33;;;;;;;1.40;1.10;;;;;;;2.40;100.00;97399.41;5109397;28;20214;-73
2022/01/08 05:17:01;;;;;;;2.07;1.67;;;;;;;2.33;100.00;97395.41;5111818;28;20237;-73
2022/01/08 05:19:40;;;;;;;1.83;1.60;;;;;;;2.28;100.00;97409.59;5111483;28;20282;-73
2022/01/08 05:22:09;;;;;;;1.63;1.43;;;;;;;2.22;100.00;97423.78;5111068;28;20232;-73
2022/01/08 05:24:35;;;;;;;2.20;1.50;;;;;;;2.17;100.00;97425.75;5098269;28;20265;-73
2022/01/08 05:27:06;;;;;;;1.87;1.67;;;;;;;2.16;100.00;97424.06;5098280;28;20214;-73
2022/01/08 05:29:32;;;;;;;1.70;1.60;;;;;;;2.13;100.00;97429.41;5098210;28;20306;-73
2022/01/08 05:31:59;;;;;;;2.03;1.60;;;;;;;2.07;100.00;97432.31;5097980;28;20234;-73
2022/01/08 05:34:25;;;;;;;2.93;1.97;;;;;;;2.12;100.00;97438.16;5098139;28;20890;-73
2022/01/08 05:36:51;;;;;;;3.43;2.00;;;;;;;2.08;100.00;97448.78;5098066;28;20238;-73
2022/01/08 05:39:18;;;;;;;3.37;2.43;;;;;;;2.04;100.00;97449.84;5098179;28;20217;-73
2022/01/08 05:41:45;;;;;;;1.97;1.40;;;;;;;2.02;100.00;97455.13;5101125;28;20219;-73
2022/01/08 05:44:13;;;;;;;2.50;1.70;;;;;;;1.96;100.00;97468.44;5098194;28;20222;-73
2022/01/08 05:46:44;;;;;;;1.40;1.30;;;;;;;2.01;100.00;97460.38;5098191;28;20211;-72
2022/01/08 05:49:11;;;;;;;1.53;1.30;;;;;;;2.00;100.00;97474.34;5098320;28;20583;-73
2022/01/08 05:51:37;;;;;;;0.80;0.80;;;;;;;1.99;100.00;97475.25;5100975;28;20301;-73
2022/01/08 05:54:04;;;;;;;1.30;1.00;;;;;;;1.94;100.00;97477.22;5098027;28;20575;-73
2022/01/08 05:56:30;;;;;;;1.87;0.80;;;;;;;1.94;100.00;97490.25;5097910;28;20613;-72
2022/01/08 05:58:56;;;;;;;1.00;0.90;;;;;;;1.95;100.00;97495.41;5096232;28;20228;-71
2022/01/08 06:01:24;;;;;;;0.80;0.80;;;;;;;1.96;100.00;97497.09;5100634;28;20217;-71
2022/01/08 06:03:51;;;;;;;1.37;1.27;;;;;;;1.97;100.00;97508.38;5097619;28;20691;-71
2022/01/08 06:06:17;;;;;;;1.30;1.20;;;;;;;2.02;100.00;97516.84;5097875;28;20222;-71
2022/01/08 06:08:44;;;;;;;1.20;1.10;;;;;;;2.02;100.00;97533.28;5097784;28;20230;-72
2022/01/08 06:11:10;;;;;;;1.03;0.93;;;;;;;1.98;100.00;97554.34;5106953;28;20213;-74
2022/01/08 06:13:37;;;;;;;1.10;1.00;;;;;;;1.92;100.00;97544.19;5108596;28;20218;-73
2022/01/08 06:16:03;;;;;;;1.00;0.90;;;;;;;1.88;100.00;97553.06;5110634;28;20580;-73
2022/01/08 06:18:32;;;;;;;0.50;0.50;;;;;;;1.78;100.00;97570.84;5110650;28;20241;-71
2022/01/08 06:20:59;;;;;;;0.70;0.70;;;;;;;1.72;100.00;97586.75;5108580;28;20219;-72
2022/01/08 06:23:26;;;;;;;0.83;0.83;;;;;;;1.72;100.00;97598.94;5106599;28;20225;-73
2022/01/08 06:25:53;;;;;;;0.80;0.80;;;;;;;1.70;100.00;97605.94;5110286;28;20214;-72
2022/01/08 06:28:19;;;;;;;0.80;0.80;;;;;;;1.70;100.00;97599.00;5110493;28;20208;-73
2022/01/08 06:30:47;;;;;;;1.67;0.90;;;;;;;1.59;100.00;97605.59;5108228;28;20238;-73
2022/01/08 06:33:13;;;;;;;1.27;0.90;;;;;;;1.61;100.00;97622.81;5108025;28;20301;-73
2022/01/08 06:35:41;;;;;;;1.37;1.27;;;;;;;1.60;100.00;97626.34;5110301;28;20209;-73
2022/01/08 06:38:08;;;;;;;0.83;0.83;;;;;;;1.62;100.00;97634.94;5102727;28;20280;-73
2022/01/08 06:40:34;;;;;;;1.00;1.00;;;;;;;1.64;100.00;97643.53;5098652;28;20210;-73
2022/01/08 06:43:01;;;;;;;1.20;1.10;;;;;;;1.65;100.00;97650.44;5097212;28;20225;-73
2022/01/08 06:45:27;;;;;;;1.00;1.00;;;;;;;1.64;100.00;97661.75;5096929;28;20592;-73
2022/01/08 06:47:54;;;;;;;1.10;1.00;;;;;;;1.62;100.00;97662.75;5096794;28;20683;-73
2022/01/08 06:50:20;;;;;;;1.10;1.00;;;;;;;1.64;100.00;97673.94;5096393;28;20214;-74
2022/01/08 06:52:48;;;;;;;1.20;1.07;;;;;;;1.63;100.00;97690.47;5097923;28;20225;-73
2022/01/08 06:55:14;;;;;;;1.20;1.10;;;;;;;1.68;100.00;97707.63;5096912;28;20210;-76
2022/01/08 06:57:43;;;;;;;1.83;1.17;;;;;;;1.71;100.00;97712.69;5096754;28;20241;-74
2022/01/08 07:00:11;;;;;;;1.13;1.10;;;;;;;1.71;100.00;97723.09;5097489;28;20601;-75
2022/01/08 07:02:37;;;;;;;1.20;1.00;;;;;;;1.74;100.00;97746.44;5097795;28;20259;-75
2022/01/08 07:05:04;;;;;;;1.53;1.20;;;;;;;1.77;100.00;97754.13;5096681;28;20261;-80
2022/01/08 07:07:30;;;;;;;1.93;1.20;;;;;;;1.75;100.00;97752.47;5096367;28;20218;-73
2022/01/08 07:09:58;;;;;;;1.50;1.40;;;;;;;1.75;100.00;97768.97;5104284;28;20667;-74
2022/01/08 07:12:25;;;;;;;1.40;1.30;;;;;;;1.79;100.00;97767.09;5105988;28;20234;-76
2022/01/08 07:14:51;;;;;;;1.53;1.43;;;;;;;1.75;100.00;97794.16;5109504;28;20688;-77
2022/01/08 07:17:18;;;;;;;6.47;1.50;;;;;;;1.65;100.00;97787.66;5107808;28;20603;-74
2022/01/08 07:19:44;;;;;;;2.57;1.40;;;;;;;1.60;100.00;97798.22;5109132;28;20594;-74
2022/01/08 07:22:10;;;;;;;1.60;1.50;;;;;;;1.57;100.00;97793.16;5105470;28;20707;-75
2022/01/08 07:24:37;;;;;;;1.57;1.33;;;;;;;1.40;100.00;97811.16;5094996;28;20216;-76
2022/01/08 07:27:05;;;;;;;3.23;1.63;;;;;;;1.23;100.00;97823.97;5094989;28;20265;-76
2022/01/08 07:29:31;;;;;;;1.77;1.50;;;;;;;1.20;100.00;97839.72;5094839;28;20222;-76
2022/01/08 07:31:58;;;;;;;1.83;1.50;;;;;;;1.14;100.00;97839.94;5095766;28;20235;-76
2022/01/08 07:34:24;;;;;;;2.07;1.77;;;;;;;1.12;100.00;97846.94;5095152;28;20693;-77
2022/01/08 07:36:51;;;;;;;2.43;2.10;;;;;;;1.25;100.00;97857.75;5095082;28;20234;-76
2022/01/08 07:39:17;;;;;;;3.77;2.20;;;;;;;1.21;100.00;97862.22;5095015;28;20585;-77
2022/01/08 07:41:44;;;;;;;5.47;2.87;;;;;;;1.29;100.00;97864.56;5094681;28;20221;-77
2022/01/08 07:44:12;;;;;;;4.23;2.50;;;;;;;1.42;100.00;97864.03;5095086;28;20224;-77
2022/01/08 07:46:38;;;;;;;4.93;2.80;;;;;;;1.41;100.00;97870.13;5094934;28;20219;-77
2022/01/08 07:49:05;;;;;;;3.50;2.90;;;;;;;1.45;100.00;97876.06;5094994;28;20209;-77
2022/01/08 07:51:31;;;;;;;4.83;2.93;;;;;;;1.43;100.00;97878.75;5104684;28;20233;-77
2022/01/08 07:53:58;;;;;;;6.87;3.50;;;;;;;1.37;100.00;97889.41;5095003;28;20210;-77
2022/01/08 07:56:24;;;;;;;4.30;3.37;;;;;;;1.33;100.00;97882.59;5095924;28;20217;-77
2022/01/08 07:58:51;;;;;;;4.57;3.20;;;;;;;1.28;100.00;97894.94;5095470;28;20777;-78
2022/01/08 08:01:18;;;;;;;4.73;3.10;;;;;;;1.31;100.00;97894.84;5098060;28;20255;-78
2022/01/08 08:03:45;;;;;;;6.10;3.23;;;;;;;1.37;100.00;97904.16;5095466;28;20218;-78
2022/01/08 08:06:11;;;;;;;3.27;2.97;;;;;;;1.40;100.00;97925.72;5095457;28;20213;-78
2022/01/08 08:08:38;;;;;;;4.23;2.80;;;;;;;1.50;100.00;97921.91;5095882;28;20209;-77
2022/01/08 08:11:05;;;;;;;4.23;3.37;;;;;;;1.53;100.00;97926.97;5105370;28;20222;-78
2022/01/08 08:13:31;;;;;;;4.13;2.60;;;;;;;1.60;100.00;97946.66;5106271;28;20215;-79
2022/01/08 08:15:58;;;;;;;3.53;2.60;;;;;;;1.71;100.00;97947.13;5108484;28;20218;-78
2022/01/08 08:18:26;;;;;;;4.03;2.40;;;;;;;1.71;100.00;97949.72;5108493;28;20238;-78
2022/01/08 08:20:53;;;;;;;3.87;2.70;;;;;;;1.69;100.00;97961.13;5106536;28;20213;-77
2022/01/08 08:23:19;;;;;;;4.90;2.37;;;;;;;1.69;100.00;97961.97;5106409;28;20228;-77
2022/01/08 08:25:46;;;;;;;5.03;2.50;;;;;;;1.67;100.00;97966.38;5108748;28;20214;-78
2022/01/08 08:28:12;;;;;;;2.90;2.43;;;;;;;1.66;100.00;97969.88;5108827;28;20213;-77
2022/01/08 08:30:39;;;;;;;3.33;2.30;;;;;;;1.71;100.00;97975.78;5107333;28;20241;-77
2022/01/08 08:33:05;;;;;;;3.20;2.60;;;;;;;1.72;100.00;97974.88;5105378;28;20214;-77
2022/01/08 08:35:34;;;;;;;2.30;2.10;;;;;;;1.77;100.00;97983.38;5106753;28;20212;-78
2022/01/08 08:38:01;;;;;;;3.10;2.00;;;;;;;1.77;100.00;97988.59;5108642;28;20229;-77
2022/01/08 08:40:27;;;;;;;3.10;2.37;;;;;;;1.81;100.00;97989.31;5107571;28;20225;-77
2022/01/08 08:42:54;;;;;;;2.27;2.03;;;;;;;1.82;100.00;97988.41;5105157;28;20211;-77
2022/01/08 08:45:21;;;;;;;2.77;2.40;;;;;;;1.83;100.00;97990.97;5108470;28;20217;-77
2022/01/08 08:47:47;;;;;;;2.57;2.10;;;;;;;1.90;100.00;98002.03;5108493;28;20221;-77
2022/01/08 08:50:15;;;;;;;3.70;1.93;;;;;;;1.94;100.00;97996.63;5107757;28;20212;-77
2022/01/08 08:52:43;;;;;;;2.77;2.00;;;;;;;1.95;100.00;98013.97;5104725;28;20298;-77
2022/01/08 08:55:13;;;;;;;3.30;1.80;;;;;;;2.02;100.00;98019.81;5108525;28;20210;-77
2022/01/08 08:57:40;;;;;;;2.87;1.60;;;;;;;2.10;100.00;98022.97;5108104;28;20750;-77
2022/01/08 09:00:07;;;;;;;2.90;1.57;;;;;;;2.16;100.00;98023.59;5107333;28;20206;-77
2022/01/08 09:02:34;;;;;;;2.43;1.60;;;;;;;2.17;100.00;98034.84;5103508;28;20211;-77
2022/01/08 09:05:00;;;;;;;3.00;1.70;;;;;;;2.16;100.00;98027.94;5109387;28;20217;-77
2022/01/08 09:07:27;;;;;;;2.73;1.83;;;;;;;2.20;100.00;98040.81;5106232;28;20221;-77
2022/01/08 09:09:55;;;;;;;3.87;1.50;;;;;;;2.26;100.00;98040.56;5106672;28;20225;-78
2022/01/08 09:12:21;;;;;;;2.73;1.53;;;;;;;2.27;100.00;98037.06;5108488;28;20213;-77
2022/01/08 09:14:48;;;;;;;3.33;1.40;;;;;;;2.21;100.00;98037.28;5111781;28;20213;-77
2022/01/08 09:17:15;;;;;;;2.53;1.70;;;;;;;2.18;100.00;98037.41;5111521;28;20213;-80
2022/01/08 09:19:43;;;;;;;2.73;1.70;;;;;;;2.16;100.00;98041.84;5108243;28;20209;-77
2022/01/08 09:22:09;;;;;;;2.13;1.53;;;;;;;2.17;100.00;98040.06;5107073;28;20223;-76
2022/01/08 09:24:37;;;;;;;4.37;1.80;;;;;;;2.24;100.00;98042.41;5097676;28;20226;-76
2022/01/08 09:27:05;;;;;;;2.57;1.77;;;;;;;2.30;100.00;98044.78;5095133;28;20620;-77
2022/01/08 09:29:32;;;;;;;3.33;2.27;;;;;;;2.37;100.00;98053.19;5108387;28;20211;-77
2022/01/08 09:31:59;;;;;;;3.97;1.80;;;;;;;2.42;100.00;98052.13;5106575;28;20246;-77
2022/01/08 09:34:26;;;;;;;4.27;2.07;;;;;;;2.48;100.00;98057.13;5096352;28;20216;-80
2022/01/08 09:36:53;;;;;;;3.20;1.90;;;;;;;2.51;100.00;98045.72;5098724;28;20570;-81
2022/01/08 09:39:19;;;;;;;3.20;2.00;;;;;;;2.60;100.00;98058.38;5100750;28;20287;-80
2022/01/08 09:41:46;;;;;;;5.83;2.07;;;;;;;2.61;100.00;98055.72;5098316;28;20229;-79
2022/01/08 09:44:14;;;;;;;5.53;1.80;;;;;;;2.64;100.00;98062.59;5097978;28;20680;-80
2022/01/08 09:46:41;;;;;;;3.67;1.97;;;;;;;2.66;100.00;98056.41;5098252;28;20216;-79
2022/01/08 09:49:07;;;;;;;2.93;2.03;;;;;;;2.71;100.00;98059.69;5102283;28;20215;-79
2022/01/08 09:51:34;;;;;;;2.13;1.93;;;;;;;2.77;100.00;98056.84;5104771;28;20206;-81
2022/01/08 09:54:02;;;;;;;2.57;1.90;;;;;;;2.73;100.00;98063.06;5100026;28;20214;-79
2022/01/08 09:56:31;;;;;;;5.03;2.53;;;;;;;2.60;100.00;98061.88;5101267;28;20208;-80
2022/01/08 09:58:57;;;;;;;4.53;2.20;;;;;;;2.47;100.00;98054.56;5102364;28;20318;-80
2022/01/08 10:01:27;;;;;;;5.63;2.37;;;;;;;2.28;100.00;98054.41;5104967;28;20225;-79
2022/01/08 10:03:54;;;;;;;4.47;2.10;;;;;;;2.28;100.00;98061.38;5101313;28;20216;-79
2022/01/08 10:06:25;;;;;;;4.07;2.20;;;;;;;2.26;100.00;98063.22;5101226;28;20215;-81
2022/01/08 10:08:52;;;;;;;4.67;2.20;;;;;;;2.33;100.00;98067.28;5102148;28;20586;-81
2022/01/08 10:11:20;;;;;;;3.90;2.10;;;;;;;2.41;100.00;98068.69;5103587;28;20202;-81
2022/01/08 10:13:51;;;;;;;3.80;1.80;;;;;;;2.44;100.00;98071.16;5096515;28;20209;-81
2022/01/08 10:19:16;;;;;;;4.67;2.10;;;;;;;2.76;98.89;98068.16;5101117;28;20253;-79
2022/01/08 10:21:44;;;;;;;3.83;1.87;;;;;;;2.88;98.82;98078.13;5094624;28;20216;-80
2022/01/08 10:24:11;;;;;;;2.53;1.50;;;;;;;2.97;97.71;98069.94;5097217;28;20222;-81
2022/01/08 10:26:39;;;;;;;2.20;1.90;;;;;;;2.93;97.17;98073.56;5097244;28;20214;-79
2022/01/08 10:29:10;;;;;;;3.67;2.10;;;;;;;2.81;97.91;98078.44;5095514;28;20316;-79
2022/01/08 10:31:39;;;;;;;2.07;1.77;;;;;;;2.73;98.59;98073.50;5096179;28;20250;-79
2022/01/08 10:34:09;;;;;;;2.30;1.93;;;;;;;2.64;99.22;98073.84;5097694;28;20301;-81
2022/01/08 10:36:38;;;;;;;3.60;1.70;;;;;;;2.56;98.08;98073.31;5095376;28;20218;-81
2022/01/08 10:39:06;;;;;;;4.03;2.30;;;;;;;2.39;98.64;98093.13;5095779;28;20239;-80
2022/01/08 10:41:33;;;;;;;5.33;2.10;;;;;;;2.30;97.96;98081.28;5095677;28;20207;-80
2022/01/08 10:44:09;;;;;;;4.10;2.43;;;;;;;2.19;99.83;98086.03;5108026;28;20214;-80
2022/01/08 10:46:36;;;;;;;2.83;1.80;;;;;;;2.12;99.88;98078.50;5099090;28;20217;-81
2022/01/08 10:49:04;;;;;;;5.93;1.97;;;;;;;2.21;100.00;98079.00;5103644;28;20214;-78
2022/01/08 10:51:37;;;;;;;3.00;1.70;;;;;;;2.23;100.00;98081.56;5104479;28;20210;-78
2022/01/08 10:54:10;;;;;;;4.53;2.30;;;;;;;2.28;99.71;98077.03;5100022;28;20211;-79
2022/01/08 10:56:40;;;;;;;6.30;2.83;;;;;;;2.27;100.00;98081.38;5101956;28;20208;-80
2022/01/08 10:59:13;;;;;;;2.30;2.00;;;;;;;2.28;99.31;98085.69;5095706;28;20711;-80
2022/01/08 11:01:45;;;;;;;7.00;2.57;;;;;;;2.16;97.04;98091.38;5097831;28;20217;-79
2022/01/08 11:04:14;;;;;;;7.90;2.23;;;;;;;2.17;97.11;98080.03;5099781;28;20217;-79
2022/01/08 11:06:55;;;;;;;4.90;1.97;;;;;;;2.17;94.19;98080.03;5100091;28;20220;-82
2022/01/08 11:09:23;;;;;;;4.67;2.30;;;;;;;2.17;97.54;98082.66;5098151;28;20291;-81
2022/01/08 11:11:51;;;;;;;3.40;2.00;;;;;;;2.31;98.72;98085.59;5109439;28;20225;-80
2022/01/08 11:17:12;;;;;;;1.83;1.70;;;;;;;3.01;93.98;98070.66;5092327;28;20222;-81
2022/01/08 11:19:43;;;;;;;2.43;1.97;;;;;;;3.41;93.08;98063.72;5092447;28;20264;-81
2022/01/08 11:22:13;;;;;;;2.50;1.90;;;;;;;3.75;92.58;98052.69;5093127;28;20216;-80
2022/01/08 11:24:49;;;;;;;5.87;2.00;;;;;;;3.71;90.22;98046.75;5092734;28;20685;-82
2022/01/08 11:27:21;;;;;;;7.93;2.10;;;;;;;3.57;90.12;98043.88;5092288;28;20214;-81
2022/01/08 11:29:55;;;;;;;3.40;2.00;;;;;;;3.64;88.55;98039.22;5091596;28;20300;-81
2022/01/08 11:32:22;;;;;;;4.27;1.80;;;;;;;3.85;87.48;98039.13;5094385;28;20218;-80
2022/01/08 11:34:49;;;;;;;2.37;1.60;;;;;;;4.00;86.38;98043.72;5092033;28;20216;-81
2022/01/08 11:37:18;;;;;;;5.23;1.70;;;;;;;4.07;83.94;98045.13;5092963;28;20214;-81
2022/01/08 11:39:45;;;;;;;2.40;1.53;;;;;;;4.26;84.80;98035.53;5090676;28;20711;-82
2022/01/08 11:42:13;;;;;;;2.50;1.50;;;;;;;4.34;85.13;98036.00;5095439;28;20222;-83
2022/01/08 11:44:40;;;;;;;2.50;1.53;;;;;;;4.38;84.94;98034.97;5093768;28;20272;-83
2022/01/08 11:47:08;;;;;;;2.17;1.20;;;;;;;4.39;82.39;98031.44;5093409;28;20219;-83
2022/01/08 11:49:35;;;;;;;3.00;1.50;;;;;;;4.33;80.69;98026.47;5093286;28;20212;-83
2022/01/08 11:52:19;;;;;;;2.83;1.43;;;;;;;4.29;80.90;98022.28;5095158;28;20217;-83
2022/01/08 11:54:47;;;;;;;2.37;1.40;;;;;;;4.32;82.29;98022.16;5091294;28;20225;-84
2022/01/08 11:57:19;;;;;;;2.60;1.73;;;;;;;4.37;81.16;98028.03;5093366;28;20616;-84
2022/01/08 11:59:46;;;;;;;1.47;1.30;;;;;;;4.45;81.09;98015.44;5095070;28;20235;-83